createdAt,value
2019-04-22T00:01:51.356Z,4.80
2019-04-22T00:04:30.260Z,5.13
2019-04-22T00:07:08.737Z,5.13
2019-04-22T00:09:45.957Z,4.20
2019-04-22T00:12:13.810Z,4.40
2019-04-22T00:14:42.103Z,4.70
2019-04-22T00:17:16.421Z,4.57
2019-04-22T00:19:53.833Z,4.10
2019-04-22T00:22:18.590Z,4.73
2019-04-22T00:24:47.829Z,4.50
2019-04-22T00:27:20.625Z,4.57
2019-04-22T00:32:11.389Z,4.97
2019-04-22T00:34:51.991Z,4.50
2019-04-22T00:37:25.236Z,4.73
2019-04-22T00:39:51.768Z,4.53
2019-04-22T00:42:24.342Z,4.77
2019-04-22T00:44:52.981Z,4.40
2019-04-22T00:47:27.997Z,4.80
2019-04-22T00:52:22.270Z,5.00
2019-04-22T00:54:59.508Z,5.07
2019-04-22T00:57:21.709Z,5.10
2019-04-22T00:59:52.244Z,5.00
2019-04-22T01:02:27.428Z,4.87
2019-04-22T01:04:54.928Z,4.90
2019-04-22T01:07:23.912Z,5.10
2019-04-22T01:09:58.600Z,5.43
2019-04-22T01:12:29.739Z,5.27
2019-04-22T01:14:55.821Z,5.37
2019-04-22T01:17:27.634Z,5.03
2019-04-22T01:19:58.541Z,5.23
2019-04-22T01:22:22.348Z,5.33
2019-04-22T01:24:52.769Z,5.13
2019-04-22T01:27:17.469Z,5.13
2019-04-22T01:29:46.822Z,5.63
2019-04-22T01:32:13.233Z,5.27
2019-04-22T01:34:51.487Z,5.10
2019-04-22T01:37:27.012Z,4.83
2019-04-22T01:42:35.718Z,5.07
2019-04-22T01:45:03.092Z,4.70
2019-04-22T01:47:31.288Z,5.30
2019-04-22T01:49:59.853Z,5.30
2019-04-22T01:52:31.088Z,5.27
2019-04-22T01:55:07.214Z,5.10
2019-04-22T01:57:30.355Z,4.90
2019-04-22T01:59:59.035Z,4.67
2019-04-22T02:05:04.869Z,5.13
2019-04-22T02:10:04.234Z,4.70
2019-04-22T02:12:35.383Z,4.47
2019-04-22T02:15:06.559Z,5.53
2019-04-22T02:17:37.070Z,4.80
2019-04-22T02:20:06.836Z,4.73
2019-04-22T02:22:50.862Z,4.77
2019-04-22T02:25:13.582Z,4.93
2019-04-22T02:27:38.990Z,5.57
2019-04-22T02:30:08.463Z,4.70
2019-04-22T02:35:17.613Z,5.17
2019-04-22T02:37:55.005Z,5.87
2019-04-22T02:40:09.191Z,5.47
2019-04-22T02:42:32.380Z,5.70
2019-04-22T02:45:16.438Z,5.53
2019-04-22T02:47:34.250Z,5.37
2019-04-22T02:50:12.653Z,5.67
2019-04-22T02:52:37.571Z,5.17
2019-04-22T02:55:27.521Z,5.13
2019-04-22T02:57:40.019Z,5.70
2019-04-22T03:00:18.155Z,5.20
2019-04-22T03:07:40.964Z,5.70
2019-04-22T03:10:18.935Z,5.27
2019-04-22T03:12:35.373Z,5.40
2019-04-22T03:15:07.876Z,6.10
2019-04-22T03:56:57.222Z,6.27
2019-04-22T03:58:57.143Z,5.37
2019-04-22T04:01:33.664Z,5.97
2019-04-22T04:04:02.952Z,5.93
2019-04-22T04:06:34.670Z,6.50
2019-04-22T04:08:51.626Z,6.10
2019-04-22T04:11:29.699Z,5.47
2019-04-22T04:14:03.516Z,6.17
2019-04-22T04:16:30.391Z,6.03
2019-04-22T04:24:17.229Z,5.57
2019-04-22T04:26:37.390Z,5.90
2019-04-22T04:29:06.324Z,5.70
2019-04-22T04:33:54.559Z,6.27
2019-04-22T04:36:28.294Z,6.53
2019-04-22T04:39:00.586Z,6.27
2019-04-22T04:44:01.927Z,6.10
2019-04-22T04:46:42.873Z,7.50
2019-04-22T04:54:05.836Z,6.90
2019-04-22T05:04:14.244Z,7.40
2019-04-22T05:06:36.862Z,6.80
2019-04-22T05:11:38.761Z,7.10
2019-04-22T05:14:14.882Z,6.83
2019-04-22T05:24:00.942Z,6.40
2019-04-22T05:26:28.033Z,7.40
2019-04-22T05:28:51.596Z,6.67
2019-04-22T05:31:26.160Z,6.80
2019-04-22T05:34:01.665Z,6.80
2019-04-22T05:36:25.980Z,7.07
2019-04-22T05:38:53.761Z,7.17
2019-04-22T05:41:27.178Z,6.40
2019-04-22T05:43:58.262Z,6.17
2019-04-22T05:46:26.236Z,6.30
2019-04-22T05:48:55.379Z,6.20
2019-04-22T05:51:29.541Z,6.87
2019-04-22T05:53:53.953Z,7.03
2019-04-22T05:56:37.118Z,6.70
2019-04-22T05:58:58.224Z,6.50
2019-04-22T06:03:59.234Z,5.93
2019-04-22T06:06:24.076Z,6.30
2019-04-22T06:08:59.243Z,6.50
2019-04-22T06:11:25.754Z,6.33
2019-04-22T06:13:56.007Z,5.77
2019-04-22T06:16:31.103Z,6.30
2019-04-22T06:19:02.781Z,5.90
2019-04-22T06:21:33.714Z,5.70
2019-04-22T06:26:37.583Z,5.50
2019-04-22T06:29:07.389Z,6.33
2019-04-22T06:36:37.754Z,5.57
2019-04-22T06:39:08.776Z,5.17
2019-04-22T06:41:35.352Z,5.40
2019-04-22T06:44:06.256Z,5.50
2019-04-22T06:46:34.638Z,5.37
2019-04-22T06:49:03.167Z,5.63
2019-04-22T06:51:33.073Z,4.97
2019-04-22T06:54:03.361Z,5.53
2019-04-22T06:56:37.101Z,5.33
2019-04-22T06:59:10.004Z,5.33
2019-04-22T07:01:35.753Z,4.97
2019-04-22T07:04:03.324Z,5.00
2019-04-22T07:06:42.078Z,5.30
2019-04-22T07:09:20.612Z,4.30
2019-04-22T07:11:33.482Z,5.00
2019-04-22T07:14:05.500Z,5.23
2019-04-22T07:16:38.202Z,4.60
2019-04-22T07:19:07.671Z,5.17
2019-04-22T07:21:36.886Z,5.60
2019-04-22T07:24:20.162Z,6.20
2019-04-22T07:26:41.967Z,6.20
2019-04-22T07:29:09.045Z,4.43
2019-04-22T07:31:37.378Z,4.90
2019-04-22T07:34:16.415Z,5.70
2019-04-22T07:39:10.425Z,4.43
2019-04-22T07:41:39.973Z,3.93
2019-04-22T07:46:41.482Z,4.43
2019-04-22T07:49:10.631Z,3.83
2019-04-22T07:51:36.695Z,3.37
2019-04-22T07:54:09.029Z,2.63
2019-04-22T07:56:40.896Z,2.93
2019-04-22T07:59:09.595Z,3.10
2019-04-22T08:01:39.770Z,2.90
2019-04-22T08:04:16.026Z,2.50
2019-04-22T08:06:46.650Z,2.73
2019-04-22T08:09:15.174Z,2.13
2019-04-22T08:14:07.720Z,2.03
2019-04-22T08:16:43.962Z,2.70
2019-04-22T08:19:15.561Z,2.70
2019-04-22T08:21:38.256Z,2.80
2019-04-22T08:24:20.177Z,2.90
2019-04-22T08:26:38.274Z,2.73
2019-04-22T08:29:17.473Z,1.90
2019-04-22T08:31:40.396Z,2.63
2019-04-22T08:34:13.728Z,2.17
2019-04-22T08:37:03.092Z,3.60
2019-04-22T08:39:19.906Z,2.90
2019-04-22T08:41:37.445Z,2.70
2019-04-22T08:44:07.641Z,2.80
2019-04-22T08:46:41.002Z,2.80
2019-04-22T08:49:10.262Z,2.30
2019-04-22T08:54:12.163Z,2.27
2019-04-22T08:56:57.164Z,2.30
2019-04-22T08:59:12.095Z,2.10
2019-04-22T09:01:37.743Z,2.23
2019-04-22T09:04:12.315Z,1.90
2019-04-22T09:09:17.562Z,2.40
2019-04-22T09:11:47.105Z,2.50
2019-04-22T09:14:22.871Z,2.17
2019-04-22T09:16:46.295Z,2.03
2019-04-22T09:19:12.276Z,2.10
2019-04-22T09:21:50.668Z,2.13
2019-04-22T09:24:19.647Z,1.70
2019-04-22T09:26:49.193Z,2.30
2019-04-22T09:29:23.593Z,2.17
2019-04-22T09:31:53.955Z,2.50
2019-04-22T09:34:13.754Z,2.47
2019-04-22T09:36:50.260Z,2.20
2019-04-22T09:39:23.870Z,2.20
2019-04-22T09:41:51.456Z,2.13
2019-04-22T09:44:14.779Z,2.70
2019-04-22T09:46:47.021Z,2.20
2019-04-22T09:49:18.996Z,3.10
2019-04-22T09:51:57.051Z,2.50
2019-04-22T09:54:22.079Z,2.87
2019-04-22T09:56:53.110Z,2.47
2019-04-22T09:59:20.468Z,2.07
2019-04-22T10:01:56.889Z,2.50
2019-04-22T10:04:10.344Z,3.13
2019-04-22T10:06:40.685Z,2.90
2019-04-22T10:09:34.731Z,2.63
2019-04-22T10:11:50.898Z,2.67
2019-04-22T10:14:19.134Z,2.83
2019-04-22T10:16:56.517Z,3.07
2019-04-22T10:19:18.339Z,3.10
2019-04-22T10:21:50.001Z,2.57
2019-04-22T10:24:35.457Z,2.50
2019-04-22T10:26:55.287Z,2.60
2019-04-22T10:29:25.565Z,2.43
2019-04-22T10:31:52.651Z,3.40
2019-04-22T10:34:10.521Z,3.17
2019-04-22T10:36:25.845Z,4.33
2019-04-22T10:38:54.675Z,2.90
2019-04-22T10:41:23.259Z,2.70
2019-04-22T10:43:52.944Z,2.67
2019-04-22T10:46:22.210Z,2.77
2019-04-22T10:48:50.719Z,2.80
2019-04-22T10:51:20.072Z,2.90
2019-04-22T10:53:49.350Z,4.43
2019-04-22T10:56:18.965Z,4.03
2019-04-22T10:58:48.825Z,4.50
2019-04-22T11:01:17.895Z,4.30
2019-04-22T11:03:46.403Z,3.10
2019-04-22T11:06:15.110Z,2.77
2019-04-22T11:08:51.902Z,2.50
2019-04-22T11:11:26.197Z,4.70
2019-04-22T11:13:44.206Z,2.53
2019-04-22T11:16:13.825Z,2.83
2019-04-22T11:18:43.416Z,2.63
2019-04-22T11:21:11.918Z,2.77
2019-04-22T11:23:40.752Z,6.70
2019-04-22T11:26:10.101Z,3.57
2019-04-22T11:28:38.721Z,2.93
2019-04-22T11:31:08.221Z,2.40
2019-04-22T11:33:36.800Z,2.77
2019-04-22T11:36:06.135Z,4.70
2019-04-22T11:38:40.372Z,2.87
2019-04-22T11:41:05.421Z,2.43
2019-04-22T11:43:34.489Z,2.50
2019-04-22T11:46:05.488Z,2.50
2019-04-22T11:48:34.098Z,2.70
2019-04-22T11:51:04.159Z,2.70
2019-04-22T11:53:32.838Z,3.20
2019-04-22T11:56:02.701Z,4.33
2019-04-22T11:58:33.012Z,3.07
2019-04-22T12:01:02.983Z,3.30
2019-04-22T12:03:31.684Z,3.27
2019-04-22T12:06:01.871Z,8.90
2019-04-22T12:08:31.188Z,4.93
2019-04-22T12:11:02.685Z,3.00
2019-04-22T12:13:30.239Z,3.63
2019-04-22T12:15:59.056Z,2.77
2019-04-22T12:18:29.013Z,3.43
2019-04-22T12:20:59.110Z,3.67
2019-04-22T12:23:29.289Z,3.20
2019-04-22T12:26:04.207Z,3.43
2019-04-22T12:28:28.773Z,5.93
2019-04-22T12:30:57.394Z,3.43
2019-04-22T12:33:27.585Z,2.40
2019-04-22T12:35:56.844Z,2.33
2019-04-22T12:38:25.339Z,2.30
2019-04-22T12:40:59.105Z,2.50
2019-04-22T12:43:24.570Z,2.50
2019-04-22T12:45:54.355Z,2.50
2019-04-22T12:48:23.214Z,2.33
2019-04-22T12:50:54.218Z,2.53
2019-04-22T12:53:25.607Z,1.80
2019-04-22T12:55:54.896Z,1.93
2019-04-22T12:58:23.456Z,2.00
2019-04-22T13:00:52.823Z,1.87
2019-04-22T13:03:22.289Z,2.10
2019-04-22T13:05:51.490Z,1.73
2019-04-22T13:08:20.401Z,2.00
2019-04-22T13:10:56.586Z,2.37
2019-04-22T13:13:19.039Z,1.90
2019-04-22T13:15:48.840Z,2.67
2019-04-22T13:18:28.751Z,2.10
2019-04-22T13:20:48.661Z,1.83
2019-04-22T13:23:18.073Z,2.67
2019-04-22T13:25:47.228Z,3.90
2019-04-22T13:28:15.760Z,3.80
2019-04-22T13:30:44.396Z,4.83
2019-04-22T13:33:12.925Z,2.40
2019-04-22T13:35:41.652Z,2.10
2019-04-22T13:38:11.093Z,1.90
2019-04-22T13:40:55.853Z,2.63
2019-04-22T13:43:11.022Z,2.60
2019-04-22T13:45:40.772Z,2.20
2019-04-22T13:48:29.687Z,2.60
2019-04-22T13:53:47.990Z,2.83
2019-04-22T13:56:03.260Z,2.60
2019-04-22T13:58:21.936Z,2.10
2019-04-22T14:00:42.273Z,2.87
2019-04-22T14:03:24.781Z,2.40
2019-04-22T14:05:55.096Z,2.70
2019-04-22T14:08:24.894Z,2.40
2019-04-22T14:10:54.431Z,2.47
2019-04-22T14:13:23.842Z,2.57
2019-04-22T14:15:52.953Z,3.13
2019-04-22T14:18:21.520Z,2.77
2019-04-22T14:20:51.104Z,3.17
2019-04-22T14:23:20.640Z,17.43
2019-04-22T14:25:50.699Z,9.17
2019-04-22T14:28:21.514Z,6.37
2019-04-22T14:30:50.647Z,2.83
2019-04-22T14:33:20.264Z,3.03
2019-04-22T14:35:49.957Z,2.43
2019-04-22T14:38:18.556Z,2.87
2019-04-22T14:40:48.201Z,2.73
2019-04-22T14:43:46.172Z,2.87
2019-04-22T14:46:17.892Z,3.20
2019-04-22T14:48:46.049Z,3.10
2019-04-22T14:51:07.099Z,2.90
2019-04-22T14:53:36.594Z,3.33
2019-04-22T14:55:48.557Z,2.83
2019-04-22T14:58:17.304Z,3.33
2019-04-22T15:00:46.048Z,2.93
2019-04-22T15:03:15.593Z,4.20
2019-04-22T15:05:44.228Z,3.20
2019-04-22T15:08:13.136Z,3.43
2019-04-22T15:10:42.240Z,3.67
2019-04-22T15:13:11.551Z,3.93
2019-04-22T15:15:56.820Z,4.00
2019-04-22T15:18:28.363Z,4.50
2019-04-22T15:20:58.633Z,4.97
2019-04-22T15:23:28.569Z,5.40
2019-04-22T15:25:57.188Z,4.97
2019-04-22T15:28:27.173Z,6.57
2019-04-22T15:30:57.347Z,5.50
2019-04-22T15:33:27.603Z,6.20
2019-04-22T15:35:56.388Z,6.93
2019-04-22T15:38:26.118Z,5.70
2019-04-22T15:40:54.781Z,6.10
2019-04-22T15:43:27.388Z,5.57
2019-04-22T15:45:54.861Z,6.60
2019-04-22T15:48:24.955Z,6.83
2019-04-22T15:50:54.897Z,7.30
2019-04-22T15:53:23.382Z,7.33
2019-04-22T15:55:52.442Z,7.13
2019-04-22T15:58:21.789Z,5.90
2019-04-22T16:01:00.036Z,8.23
2019-04-22T16:03:20.934Z,7.13
2019-04-22T16:05:50.268Z,7.67
2019-04-22T16:08:19.164Z,6.67
2019-04-22T16:10:48.193Z,7.40
2019-04-22T16:13:21.326Z,7.87
2019-04-22T16:15:46.951Z,7.50
2019-04-22T16:18:15.461Z,7.93
2019-04-22T16:20:44.062Z,8.00
2019-04-22T16:23:23.877Z,7.17
2019-04-22T16:26:11.727Z,14.70
2019-04-22T16:28:40.499Z,7.37
2019-04-22T16:31:09.341Z,7.00
2019-04-22T16:33:41.372Z,8.33
2019-04-22T16:36:09.290Z,7.67
2019-04-22T16:38:37.841Z,8.13
2019-04-22T16:41:10.746Z,9.10
2019-04-22T16:43:40.735Z,8.33
2019-04-22T16:46:09.777Z,8.07
2019-04-22T16:48:39.815Z,7.27
2019-04-22T16:51:09.877Z,8.63
2019-04-22T16:53:39.021Z,17.70
2019-04-22T16:56:08.806Z,8.97
2019-04-22T16:58:38.854Z,7.70
2019-04-22T17:01:10.253Z,8.50
2019-04-22T17:03:58.749Z,7.97
2019-04-22T17:06:29.880Z,7.90
2019-04-22T17:08:58.540Z,8.20
2019-04-22T17:11:27.669Z,7.30
2019-04-22T17:13:57.312Z,8.10
2019-04-22T17:16:26.243Z,8.43
2019-04-22T17:18:56.331Z,8.47
2019-04-22T17:21:25.868Z,8.00
2019-04-22T17:23:55.842Z,8.20
2019-04-22T17:26:24.440Z,8.00
2019-04-22T17:28:53.450Z,7.13
2019-04-22T17:31:22.813Z,7.47
2019-04-22T17:33:52.882Z,7.80
2019-04-22T17:36:22.438Z,7.20
2019-04-22T17:39:00.825Z,7.07
2019-04-22T17:41:34.536Z,7.60
2019-04-22T17:44:21.864Z,7.80
2019-04-22T17:46:40.391Z,20.27
2019-04-22T17:49:25.501Z,7.67
2019-04-22T17:52:12.482Z,6.40
2019-04-22T17:54:38.642Z,7.23
2019-04-22T17:57:08.028Z,7.20
2019-04-22T17:59:38.062Z,7.20
2019-04-22T18:02:02.125Z,6.67
2019-04-22T18:04:18.095Z,16.53
2019-04-22T18:07:12.303Z,7.57
2019-04-22T18:09:57.947Z,7.07
2019-04-22T18:12:11.818Z,7.27
2019-04-22T18:17:11.233Z,6.40
2019-04-22T18:19:35.759Z,6.37
2019-04-22T18:22:02.647Z,6.47
2019-04-22T18:24:26.428Z,6.80
2019-04-22T18:27:29.047Z,6.77
2019-04-22T18:29:41.799Z,6.40
2019-04-22T18:31:58.190Z,6.77
2019-04-22T18:34:32.570Z,6.70
2019-04-22T18:37:07.789Z,6.23
2019-04-22T18:39:42.479Z,6.47
2019-04-22T18:42:06.050Z,6.47
2019-04-22T18:44:44.540Z,6.70
2019-04-22T18:47:10.580Z,7.57
2019-04-22T18:49:37.597Z,6.77
2019-04-22T18:52:28.131Z,7.00
2019-04-22T18:55:07.216Z,6.53
2019-04-22T18:57:53.465Z,6.83
2019-04-22T19:00:23.487Z,6.80
2019-04-22T19:03:00.713Z,6.33
2019-04-22T19:05:40.405Z,6.83
2019-04-22T19:16:00.557Z,6.27
2019-04-22T19:18:24.563Z,7.10
2019-04-22T19:20:51.954Z,6.67
2019-04-22T19:23:20.902Z,7.27
2019-04-22T19:25:42.655Z,6.80
2019-04-22T19:28:27.873Z,7.23
2019-04-22T19:30:56.309Z,7.43
2019-04-22T19:33:23.647Z,7.60
2019-04-22T19:35:44.072Z,6.80
2019-04-22T19:38:12.200Z,7.40
2019-04-22T19:41:03.402Z,7.17
2019-04-22T19:43:22.955Z,6.50
2019-04-22T19:45:50.232Z,6.57
2019-04-22T19:48:31.477Z,7.40
2019-04-22T19:50:58.928Z,7.37
2019-04-22T19:53:25.553Z,6.60
2019-04-22T19:55:49.737Z,6.90
2019-04-22T19:58:20.165Z,6.90
2019-04-22T20:00:52.004Z,6.40
2019-04-22T20:03:48.322Z,7.67
2019-04-22T20:06:16.168Z,6.57
2019-04-22T20:08:49.052Z,6.27
2019-04-22T20:11:19.613Z,6.37
2019-04-22T20:13:53.500Z,12.70
2019-04-22T20:16:06.521Z,6.47
2019-04-22T20:18:52.248Z,6.20
2019-04-22T20:21:23.510Z,5.93
2019-04-22T20:23:39.300Z,6.50
2019-04-22T20:26:12.555Z,5.70
2019-04-22T20:28:46.879Z,6.60
2019-04-22T20:31:19.264Z,6.13
2019-04-22T20:33:54.557Z,5.63
2019-04-22T20:36:42.629Z,6.83
2019-04-22T20:38:45.368Z,5.90
2019-04-22T20:41:17.429Z,6.03
2019-04-22T20:43:52.574Z,6.47
2019-04-22T20:46:22.425Z,6.20
2019-04-22T20:48:55.370Z,5.97
2019-04-22T20:51:24.248Z,6.40
2019-04-22T20:53:56.502Z,6.20
2019-04-22T20:56:18.770Z,6.23
2019-04-22T20:58:54.607Z,5.83
2019-04-22T21:01:22.393Z,6.23
2019-04-22T21:03:43.187Z,6.27
2019-04-22T21:06:17.502Z,6.07
2019-04-22T21:08:54.886Z,6.50
2019-04-22T21:11:21.020Z,6.63
2019-04-22T21:13:48.030Z,6.03
2019-04-22T21:16:23.804Z,6.10
2019-04-22T21:18:47.432Z,6.27
2019-04-22T21:21:26.412Z,6.07
2019-04-22T21:23:47.681Z,6.27
2019-04-22T21:26:19.425Z,6.23
2019-04-22T21:28:53.454Z,6.10
2019-04-22T21:31:23.719Z,5.73
2019-04-22T21:33:51.523Z,6.30
2019-04-22T21:36:32.060Z,5.80
2019-04-22T21:38:53.240Z,5.83
2019-04-22T21:41:20.558Z,6.07
2019-04-22T21:43:52.643Z,5.70
2019-04-22T21:46:22.661Z,5.50
2019-04-22T21:48:54.626Z,5.73
2019-04-22T21:51:31.665Z,6.20
2019-04-22T21:53:57.561Z,5.83
2019-04-22T21:59:00.156Z,5.63
2019-04-22T22:01:44.697Z,5.83
2019-04-22T22:04:07.944Z,6.00
2019-04-22T22:06:25.912Z,6.13
2019-04-22T22:09:10.161Z,6.23
2019-04-22T22:11:33.896Z,5.53
2019-04-22T22:14:06.669Z,6.10
2019-04-22T22:16:29.482Z,6.50
2019-04-22T22:19:08.431Z,6.30
2019-04-22T22:24:10.177Z,6.03
2019-04-22T22:26:40.569Z,6.03
2019-04-22T22:29:15.675Z,7.00
2019-04-22T22:31:40.103Z,6.50
2019-04-22T22:34:09.489Z,6.67
2019-04-22T22:36:29.630Z,6.60
2019-04-22T22:39:01.654Z,7.30
2019-04-22T22:41:16.123Z,7.70
2019-04-22T22:43:49.121Z,7.50
2019-04-22T22:46:27.050Z,7.37
2019-04-22T22:49:10.271Z,7.40
2019-04-22T22:51:45.338Z,7.23
2019-04-22T22:54:12.122Z,7.80
2019-04-22T22:56:42.557Z,7.07
2019-04-22T22:59:03.185Z,7.17
2019-04-22T23:01:39.514Z,8.13
2019-04-22T23:04:09.229Z,7.30
2019-04-22T23:06:38.688Z,7.97
2019-04-22T23:09:09.989Z,8.00
2019-04-22T23:14:07.173Z,7.43
2019-04-22T23:16:28.110Z,8.63
2019-04-22T23:19:02.246Z,7.47
2019-04-22T23:21:39.108Z,7.57
2019-04-22T23:24:22.666Z,7.53
2019-04-22T23:27:07.491Z,7.30
2019-04-22T23:29:32.417Z,7.63
2019-04-22T23:32:08.740Z,8.13
2019-04-22T23:34:42.979Z,8.67
2019-04-22T23:37:16.192Z,8.53
2019-04-22T23:39:54.625Z,8.33
2019-04-22T23:42:21.879Z,8.67
2019-04-22T23:44:49.688Z,8.53
2019-04-22T23:47:18.517Z,8.60
2019-04-22T23:49:56.082Z,8.30
2019-04-22T23:52:31.972Z,8.20
2019-04-22T23:55:03.385Z,8.83
2019-04-22T23:57:33.193Z,8.23
